Time;durP1;ratioP1;P1;durP2;ratioP2;P2;SDS_P1;SDS_P2;PMS_P1;PMS_P2;Temp;Humidity;BMP_temperature;BMP_pressure;BME280_temperature;BME280_humidity;BME280_pressure;Samples;Min_cycle;Max_cycle;Signal;HPM_P1;HPM_P2
2022/01/17 00:01:05;;;;;;;71.93;36.30;;;;;;;0.60;100.00;100162.88;5093949;28;20191;-55
2022/01/17 00:03:34;;;;;;;73.23;36.13;;;;;;;0.43;100.00;100155.69;5093745;28;20196;-55
2022/01/17 00:06:02;;;;;;;78.83;36.70;;;;;;;0.41;100.00;100158.22;5093802;28;20203;-54
2022/01/17 00:08:29;;;;;;;75.43;37.00;;;;;;;0.48;100.00;100154.09;5093663;28;20333;-54
2022/01/17 00:10:56;;;;;;;70.47;35.70;;;;;;;0.26;100.00;100134.88;5093654;28;20195;-55
2022/01/17 00:13:26;;;;;;;68.50;34.53;;;;;;;0.49;100.00;100151.56;5094243;28;20187;-54
2022/01/17 00:15:57;;;;;;;76.23;35.67;;;;;;;0.46;100.00;100151.50;5093748;28;20198;-55
2022/01/17 00:18:52;;;;;;;63.80;33.57;;;;;;;0.47;100.00;100147.25;5093576;28;20223;-55
2022/01/17 00:21:19;;;;;;;62.23;32.37;;;;;;;0.70;100.00;100153.72;5093289;28;20198;-58
2022/01/17 00:23:46;;;;;;;62.10;31.40;;;;;;;0.50;100.00;100148.19;5093334;28;20203;-58
2022/01/17 00:26:13;;;;;;;68.23;33.07;;;;;;;0.46;100.00;100166.81;5093402;28;20286;-59
2022/01/17 00:28:40;;;;;;;71.33;33.83;;;;;;;0.42;100.00;100161.63;5093310;28;20192;-54
2022/01/17 00:31:06;;;;;;;80.30;35.73;;;;;;;0.44;100.00;100165.94;5093257;28;20203;-55
2022/01/17 00:33:34;;;;;;;77.07;35.83;;;;;;;0.51;100.00;100152.47;5093459;28;20679;-55
2022/01/17 00:36:01;;;;;;;78.07;36.67;;;;;;;0.36;100.00;100149.56;5093121;28;20197;-56
2022/01/17 00:38:30;;;;;;;76.90;36.77;;;;;;;0.29;100.00;100155.38;5093165;28;20226;-55
2022/01/17 00:40:57;;;;;;;75.93;38.13;;;;;;;0.26;100.00;100151.06;5092755;28;20206;-55
2022/01/17 00:43:25;;;;;;;74.27;37.40;;;;;;;0.08;100.00;100117.47;5093023;28;20205;-54
2022/01/17 00:45:52;;;;;;;69.70;35.63;;;;;;;0.39;100.00;100149.66;5093026;28;20203;-55
2022/01/17 00:48:19;;;;;;;71.30;35.60;;;;;;;0.32;100.00;100146.09;5093283;28;20648;-55
2022/01/17 00:50:47;;;;;;;72.20;35.07;;;;;;;0.44;100.00;100148.06;5093067;28;20198;-54
2022/01/17 00:53:14;;;;;;;72.83;35.33;;;;;;;0.54;100.00;100149.13;5092736;28;20285;-55
2022/01/17 00:55:42;;;;;;;69.80;34.87;;;;;;;0.57;100.00;100139.81;5092923;28;20256;-55
2022/01/17 00:58:09;;;;;;;64.97;34.30;;;;;;;0.69;100.00;100137.53;5093187;28;20233;-55
2022/01/17 01:00:37;;;;;;;61.87;32.63;;;;;;;0.77;100.00;100134.28;5092763;28;20289;-55
2022/01/17 01:03:05;;;;;;;64.40;34.20;;;;;;;0.66;100.00;100141.72;5092674;28;20199;-55
2022/01/17 01:05:32;;;;;;;61.47;33.07;;;;;;;0.62;100.00;100129.72;5092925;28;20202;-56
2022/01/17 01:07:59;;;;;;;62.27;32.33;;;;;;;0.60;100.00;100126.25;5092708;28;20202;-55
2022/01/17 01:10:26;;;;;;;60.40;31.50;;;;;;;0.64;100.00;100130.59;5092613;28;20213;-59
2022/01/17 01:12:54;;;;;;;54.30;31.17;;;;;;;0.71;100.00;100125.66;5092135;28;20263;-58
2022/01/17 01:15:34;;;;;;;56.97;30.90;;;;;;;0.76;100.00;100122.34;5092669;28;20696;-58
2022/01/17 01:18:12;;;;;;;62.03;31.07;;;;;;;0.59;100.00;100110.06;5092636;28;20316;-58
2022/01/17 01:21:02;;;;;;;58.97;30.70;;;;;;;0.37;100.00;100077.25;5092479;28;20199;-59
2022/01/17 01:28:59;;;;;;;60.33;30.10;;;;;;;0.53;100.00;100078.44;5092700;28;20251;-59
2022/01/17 01:31:39;;;;;;;58.87;30.20;;;;;;;0.65;100.00;100071.88;5092264;28;20195;-59
2022/01/17 01:34:07;;;;;;;56.43;29.00;;;;;;;0.66;100.00;100090.63;5091968;28;20282;-58
2022/01/17 01:36:35;;;;;;;60.03;30.40;;;;;;;0.50;100.00;100063.91;5092312;28;20230;-58
2022/01/17 01:39:04;;;;;;;49.70;28.40;;;;;;;0.37;100.00;100072.13;5092053;28;20222;-58
2022/01/17 01:41:31;;;;;;;58.90;29.40;;;;;;;0.30;100.00;100062.63;5092120;28;20195;-59
2022/01/17 01:44:00;;;;;;;64.20;31.50;;;;;;;0.28;100.00;100052.41;5091713;28;20219;-57
2022/01/17 01:46:27;;;;;;;62.70;30.37;;;;;;;0.18;100.00;100045.38;5091902;28;20229;-58
2022/01/17 01:48:54;;;;;;;60.03;31.37;;;;;;;0.24;100.00;100057.38;5091844;28;20663;-57
2022/01/17 01:51:21;;;;;;;60.73;31.40;;;;;;;0.23;100.00;100059.06;5091202;28;20645;-58
2022/01/17 01:53:48;;;;;;;63.83;32.07;;;;;;;0.21;100.00;100049.69;5091412;28;20199;-58
2022/01/17 01:56:15;;;;;;;60.93;31.20;;;;;;;0.29;100.00;100043.91;5091822;28;20686;-59
2022/01/17 01:58:42;;;;;;;57.47;28.90;;;;;;;0.28;100.00;100044.72;5091425;28;20247;-59
2022/01/17 02:01:11;;;;;;;55.43;28.57;;;;;;;0.25;100.00;100046.34;5091736;28;20250;-57
2022/01/17 02:03:38;;;;;;;47.27;27.20;;;;;;;0.18;100.00;100036.84;5091188;28;20299;-55
2022/01/17 02:06:05;;;;;;;54.13;27.60;;;;;;;0.24;100.00;100034.41;5091583;28;20202;-59
2022/01/17 02:08:32;;;;;;;48.30;26.60;;;;;;;0.29;100.00;100037.94;5091591;28;20194;-59
2022/01/17 02:10:59;;;;;;;47.17;25.90;;;;;;;0.16;100.00;100036.81;5091126;28;20289;-59
2022/01/17 02:13:26;;;;;;;46.73;25.10;;;;;;;-0.02;100.00;100029.66;5090906;28;20206;-58
2022/01/17 02:16:01;;;;;;;50.33;28.57;;;;;;;-0.03;100.00;100024.50;5091413;28;20199;-59
2022/01/17 02:18:31;;;;;;;49.37;26.50;;;;;;;-0.02;100.00;100027.09;5091470;28;20606;-57
2022/01/17 02:21:12;;;;;;;52.67;26.73;;;;;;;-0.07;100.00;100018.47;5091440;28;20587;-58
2022/01/17 02:23:40;;;;;;;56.53;27.70;;;;;;;-0.17;100.00;100020.78;5091117;28;20203;-58
2022/01/17 02:26:08;;;;;;;47.27;26.27;;;;;;;-0.03;100.00;100017.72;5091018;28;20199;-59
2022/01/17 02:28:36;;;;;;;40.23;23.83;;;;;;;0.04;100.00;100017.81;5091318;28;20205;-59
2022/01/17 02:31:05;;;;;;;45.67;24.83;;;;;;;-0.10;100.00;100013.28;5091197;28;20210;-59
2022/01/17 02:33:33;;;;;;;44.43;23.73;;;;;;;-0.07;100.00;100010.81;5091143;28;20752;-59
2022/01/17 02:36:02;;;;;;;47.00;23.97;;;;;;;-0.18;100.00;100013.94;5090860;28;20199;-58
2022/01/17 02:38:29;;;;;;;41.77;22.97;;;;;;;-0.13;100.00;100018.34;5090927;28;20698;-58
2022/01/17 02:40:56;;;;;;;44.00;23.27;;;;;;;-0.23;100.00;100018.97;5091150;28;20735;-59
2022/01/17 02:43:26;;;;;;;40.33;23.27;;;;;;;-0.27;100.00;100022.25;5091002;28;20803;-59
2022/01/17 02:48:39;;;;;;;43.07;23.00;;;;;;;-0.37;100.00;100020.34;5090894;28;20201;-58
2022/01/17 02:51:08;;;;;;;39.37;22.67;;;;;;;-0.26;100.00;100016.34;5090977;28;20205;-59
2022/01/17 02:53:35;;;;;;;47.70;23.37;;;;;;;-0.34;100.00;100011.91;5090705;28;20202;-58
2022/01/17 02:56:05;;;;;;;40.57;23.57;;;;;;;-0.37;100.00;100018.66;5090741;28;20675;-55
2022/01/17 02:58:34;;;;;;;39.67;22.60;;;;;;;-0.39;100.00;100014.34;5090495;28;20222;-54
2022/01/17 03:01:05;;;;;;;44.10;23.73;;;;;;;-0.49;100.00;100007.31;5090559;28;20241;-59
2022/01/17 03:03:32;;;;;;;46.57;24.87;;;;;;;-0.51;100.00;100014.91;5090248;28;20271;-58
2022/01/17 03:06:00;;;;;;;45.30;23.63;;;;;;;-0.43;100.00;100018.50;5090646;28;20200;-58
2022/01/17 03:08:31;;;;;;;48.13;25.00;;;;;;;-0.49;100.00;100026.00;5090470;28;20194;-59
2022/01/17 03:11:05;;;;;;;46.80;25.37;;;;;;;-0.55;100.00;100013.09;5090360;28;20298;-59
2022/01/17 03:13:36;;;;;;;44.20;24.77;;;;;;;-0.69;100.00;99972.84;5090239;28;20216;-59
2022/01/17 03:16:08;;;;;;;48.23;24.87;;;;;;;-0.57;100.00;100003.72;5090533;28;20232;-59
2022/01/17 03:18:39;;;;;;;53.10;26.40;;;;;;;-0.56;100.00;100000.31;5090560;28;20223;-55
2022/01/17 03:21:08;;;;;;;51.47;27.13;;;;;;;-0.64;100.00;99995.06;5090492;28;20198;-55
2022/01/17 03:23:37;;;;;;;46.30;26.63;;;;;;;-0.66;100.00;99989.03;5090060;28;20202;-55
2022/01/17 03:26:04;;;;;;;53.80;26.87;;;;;;;-0.60;100.00;99996.00;5089961;28;20208;-55
2022/01/17 03:28:31;;;;;;;56.70;27.23;;;;;;;-0.50;100.00;99990.28;5090274;28;20228;-53
2022/01/17 03:30:59;;;;;;;49.10;25.83;;;;;;;-0.45;100.00;99989.53;5090215;28;20211;-55
2022/01/17 03:33:27;;;;;;;49.17;26.53;;;;;;;-0.55;100.00;99966.34;5090246;28;20656;-55
2022/01/17 03:35:54;;;;;;;49.77;25.87;;;;;;;-0.59;100.00;99984.97;5090189;28;20205;-54
2022/01/17 03:38:24;;;;;;;49.37;25.90;;;;;;;-0.67;100.00;99977.13;5090166;28;20285;-54
2022/01/17 03:40:52;;;;;;;46.90;24.37;;;;;;;-0.50;100.00;99982.63;5090159;28;20677;-54
2022/01/17 03:43:19;;;;;;;43.70;24.20;;;;;;;-0.59;100.00;99967.13;5090300;28;20280;-59
2022/01/17 03:45:47;;;;;;;43.20;23.77;;;;;;;-0.75;100.00;99961.66;5090130;28;20280;-58
2022/01/17 03:48:14;;;;;;;47.57;24.87;;;;;;;-0.73;100.00;99954.91;5089974;28;20198;-59
2022/01/17 03:50:41;;;;;;;45.97;24.53;;;;;;;-0.86;100.00;99940.16;5090416;28;20203;-58
2022/01/17 03:53:08;;;;;;;46.50;24.67;;;;;;;-0.72;100.00;99953.25;5090465;28;20266;-58
2022/01/17 03:55:35;;;;;;;43.27;23.23;;;;;;;-0.80;100.00;99962.41;5090247;28;20209;-57
2022/01/17 03:58:05;;;;;;;44.90;24.50;;;;;;;-0.84;100.00;99961.47;5090256;28;20244;-58
2022/01/17 04:00:36;;;;;;;42.33;24.67;;;;;;;-0.85;100.00;99967.38;5089848;28;20636;-59
2022/01/17 04:03:03;;;;;;;46.20;24.43;;;;;;;-0.97;100.00;99956.88;5089898;28;20693;-58
2022/01/17 04:05:30;;;;;;;49.70;24.97;;;;;;;-1.01;100.00;99955.06;5089071;28;20194;-57
2022/01/17 04:07:57;;;;;;;41.23;22.87;;;;;;;-0.90;100.00;99942.59;5086383;28;20701;-58
2022/01/17 04:10:24;;;;;;;42.87;24.67;;;;;;;-0.96;100.00;99939.91;5088485;28;20197;-59
2022/01/17 04:12:51;;;;;;;44.47;23.57;;;;;;;-0.98;100.00;99928.81;5088303;28;20728;-59
2022/01/17 04:15:19;;;;;;;43.37;24.10;;;;;;;-0.82;100.00;99944.53;5089567;28;20278;-58
2022/01/17 04:17:46;;;;;;;47.27;22.97;;;;;;;-0.81;100.00;99935.19;5092685;28;20286;-59
2022/01/17 04:20:25;;;;;;;45.20;22.67;;;;;;;-0.76;100.00;99937.00;5092185;28;20211;-59
2022/01/17 04:22:54;;;;;;;40.70;22.37;;;;;;;-0.70;100.00;99949.03;5090288;28;20257;-59
2022/01/17 04:25:21;;;;;;;39.00;22.63;;;;;;;-0.76;100.00;99952.28;5091065;28;20192;-59
2022/01/17 04:27:49;;;;;;;36.20;21.47;;;;;;;-0.81;100.00;99959.00;5088746;28;20214;-59
2022/01/17 04:30:16;;;;;;;39.60;21.10;;;;;;;-0.90;100.00;99963.84;5096301;28;20203;-54
2022/01/17 04:32:46;;;;;;;37.67;20.27;;;;;;;-0.80;100.00;99970.03;5093549;28;20276;-54
2022/01/17 04:35:20;;;;;;;33.87;19.97;;;;;;;-0.79;100.00;99970.06;5103544;28;20200;-57
2022/01/17 04:37:48;;;;;;;37.47;21.40;;;;;;;-1.02;100.00;99942.31;5090954;28;20195;-55
2022/01/17 04:40:15;;;;;;;39.07;21.77;;;;;;;-0.86;100.00;99958.00;5091503;28;20211;-55
2022/01/17 04:42:45;;;;;;;36.37;20.60;;;;;;;-0.78;100.00;99959.03;5092338;28;20202;-59
2022/01/17 04:45:15;;;;;;;35.93;19.30;;;;;;;-0.68;100.00;99954.19;5092267;28;20191;-59
2022/01/17 04:47:47;;;;;;;33.70;20.07;;;;;;;-0.72;100.00;99953.25;5092562;28;20200;-59
2022/01/17 04:50:15;;;;;;;35.27;18.90;;;;;;;-0.76;100.00;99959.94;5092050;28;20195;-58
2022/01/17 04:52:43;;;;;;;29.97;17.00;;;;;;;-0.67;100.00;99966.06;5091892;28;20197;-59
2022/01/17 04:55:14;;;;;;;32.67;18.17;;;;;;;-0.75;100.00;99966.75;5091917;28;20196;-59
2022/01/17 04:57:41;;;;;;;38.10;19.27;;;;;;;-0.84;100.00;99969.09;5090345;28;20630;-59
2022/01/17 05:00:11;;;;;;;35.57;19.00;;;;;;;-0.89;100.00;99963.00;5091696;28;20721;-57
2022/01/17 05:02:38;;;;;;;35.17;19.27;;;;;;;-0.71;100.00;99974.50;5073924;28;20196;-58
2022/01/17 05:05:08;;;;;;;36.43;20.07;;;;;;;-0.78;100.00;99978.56;5091227;28;20204;-54
2022/01/17 05:07:36;;;;;;;39.83;21.30;;;;;;;-0.77;100.00;99970.97;5088940;28;20194;-53
2022/01/17 05:10:05;;;;;;;34.97;19.50;;;;;;;-0.84;100.00;99965.69;5091169;28;20191;-54
2022/01/17 05:12:32;;;;;;;39.17;21.03;;;;;;;-0.90;100.00;99961.28;5087972;28;20222;-53
2022/01/17 05:14:59;;;;;;;33.73;19.37;;;;;;;-0.93;100.00;99953.59;5091980;28;20191;-55
2022/01/17 05:20:17;;;;;;;34.93;19.73;;;;;;;-0.78;100.00;99953.94;5070429;28;20220;-58
2022/01/17 05:22:44;;;;;;;38.40;20.10;;;;;;;-0.88;100.00;99953.69;5091624;28;20205;-57
2022/01/17 05:25:12;;;;;;;36.80;19.97;;;;;;;-0.88;100.00;99957.09;5092128;28;20286;-58
2022/01/17 05:27:40;;;;;;;38.07;20.83;;;;;;;-1.10;100.00;99934.47;5091970;28;20203;-59
2022/01/17 05:30:10;;;;;;;35.40;20.40;;;;;;;-1.20;100.00;99943.59;5092211;28;20207;-58
2022/01/17 05:32:37;;;;;;;44.77;22.77;;;;;;;-1.05;100.00;99943.09;5092696;28;20712;-54
2022/01/17 05:35:06;;;;;;;43.97;23.30;;;;;;;-1.05;100.00;99942.25;5091977;28;20668;-54
2022/01/17 05:37:35;;;;;;;40.93;22.00;;;;;;;-0.87;100.00;99942.69;5091997;28;20218;-54
2022/01/17 05:40:02;;;;;;;40.73;21.77;;;;;;;-0.81;100.00;99945.38;5092161;28;20306;-54
2022/01/17 05:42:29;;;;;;;43.50;22.43;;;;;;;-0.95;100.00;99942.50;5091727;28;20200;-55
2022/01/17 05:44:55;;;;;;;38.80;20.40;;;;;;;-1.15;100.00;99944.56;5092054;28;20202;-58
2022/01/17 05:47:23;;;;;;;44.57;22.63;;;;;;;-1.16;100.00;99932.66;5091825;28;20191;-58
2022/01/17 05:49:50;;;;;;;40.50;21.03;;;;;;;-1.13;100.00;99929.34;5092284;28;20190;-59
2022/01/17 05:52:17;;;;;;;32.97;19.50;;;;;;;-1.06;100.00;99923.56;5091858;28;20191;-59
2022/01/17 05:54:45;;;;;;;35.20;19.33;;;;;;;-0.86;100.00;99932.53;5092018;28;20192;-59
2022/01/17 05:57:13;;;;;;;35.20;20.13;;;;;;;-0.77;100.00;99930.19;5091772;28;20206;-59
2022/01/17 05:59:40;;;;;;;42.63;21.90;;;;;;;-0.80;100.00;99935.22;5089559;28;20310;-58
2022/01/17 06:02:07;;;;;;;42.67;23.27;;;;;;;-0.80;100.00;99935.22;5090218;28;20300;-58
2022/01/17 06:04:34;;;;;;;44.50;21.50;;;;;;;-1.03;100.00;99905.81;5090890;28;20222;-58
2022/01/17 06:07:01;;;;;;;38.23;21.47;;;;;;;-0.75;100.00;99931.09;5090390;28;20213;-58
2022/01/17 06:09:28;;;;;;;41.97;22.70;;;;;;;-0.60;100.00;99933.13;5089740;28;20215;-58
2022/01/17 06:11:57;;;;;;;46.90;23.03;;;;;;;-0.72;100.00;99927.75;5090104;28;20718;-58
2022/01/17 06:14:24;;;;;;;64.73;36.03;;;;;;;-0.65;100.00;99913.44;5075290;28;20745;-58
2022/01/17 06:16:52;;;;;;;63.20;33.13;;;;;;;-0.55;100.00;99925.56;5089608;28;20592;-61
2022/01/17 06:19:19;;;;;;;61.67;33.03;;;;;;;-0.55;100.00;99903.47;5090091;28;20243;-58
2022/01/17 06:21:46;;;;;;;65.30;34.23;;;;;;;-0.52;100.00;99915.44;5090130;28;20223;-58
2022/01/17 06:24:13;;;;;;;67.43;33.40;;;;;;;-0.47;100.00;99931.72;5090106;28;20211;-59
2022/01/17 06:26:42;;;;;;;51.43;25.23;;;;;;;-0.41;100.00;99929.28;5089623;28;20681;-58
2022/01/17 06:29:12;;;;;;;46.27;25.27;;;;;;;-0.33;100.00;99926.88;5090517;28;20693;-59
2022/01/17 06:31:40;;;;;;;43.40;23.90;;;;;;;-0.16;100.00;99908.56;5090699;28;20213;-59
2022/01/17 06:34:07;;;;;;;48.37;24.37;;;;;;;-0.12;100.00;99906.94;5090627;28;20202;-61
2022/01/17 06:36:34;;;;;;;68.63;34.17;;;;;;;-0.10;100.00;99906.13;5090644;28;20199;-60
2022/01/17 06:39:02;;;;;;;53.77;28.03;;;;;;;-0.05;100.00;99911.34;5090520;28;20608;-54
2022/01/17 06:41:30;;;;;;;56.00;28.07;;;;;;;-0.04;100.00;99906.25;5081219;28;20225;-58
2022/01/17 06:43:57;;;;;;;52.90;28.33;;;;;;;-0.05;100.00;99899.44;5090148;28;20220;-55
2022/01/17 06:46:26;;;;;;;53.10;27.97;;;;;;;-0.30;100.00;99893.81;5089818;28;20221;-58
2022/01/17 06:48:53;;;;;;;55.30;29.63;;;;;;;-0.03;100.00;99910.53;5090365;28;20223;-58
2022/01/17 06:51:20;;;;;;;65.23;31.47;;;;;;;0.09;100.00;99906.50;5090211;28;20731;-59
2022/01/17 06:53:48;;;;;;;58.80;31.00;;;;;;;0.15;100.00;99901.50;5090446;28;20297;-57
2022/01/17 06:56:15;;;;;;;57.23;30.37;;;;;;;0.19;100.00;99905.84;5089555;28;20711;-58
2022/01/17 06:58:42;;;;;;;56.87;30.33;;;;;;;0.19;100.00;99903.31;5089031;28;20204;-55
2022/01/17 07:01:10;;;;;;;56.30;29.97;;;;;;;0.26;100.00;99905.13;5076680;28;20271;-54
2022/01/17 07:03:38;;;;;;;53.97;30.00;;;;;;;0.24;100.00;99911.88;5085981;28;20244;-55
2022/01/17 07:06:05;;;;;;;60.57;30.23;;;;;;;0.29;100.00;99913.72;5088540;28;20224;-54
2022/01/17 07:08:32;;;;;;;58.20;29.03;;;;;;;0.33;100.00;99897.63;5088170;28;20233;-55
2022/01/17 07:10:59;;;;;;;46.03;25.10;;;;;;;0.50;100.00;99909.81;5088452;28;20256;-55
2022/01/17 07:13:26;;;;;;;44.93;23.23;;;;;;;0.57;100.00;99904.84;5088485;28;20230;-55
2022/01/17 07:15:53;;;;;;;49.57;25.27;;;;;;;0.61;100.00;99898.09;5088253;28;20220;-55
2022/01/17 07:18:20;;;;;;;44.87;23.80;;;;;;;0.77;100.00;99894.13;5086530;28;20219;-55
2022/01/17 07:20:48;;;;;;;48.60;24.70;;;;;;;0.85;100.00;99893.41;5088572;28;20240;-55
2022/01/17 07:23:16;;;;;;;39.00;23.57;;;;;;;0.77;100.00;99887.31;5088679;28;20579;-54
2022/01/17 07:25:43;;;;;;;45.13;23.33;;;;;;;0.73;100.00;99888.94;5088446;28;20197;-54
2022/01/17 07:28:12;;;;;;;43.10;24.33;;;;;;;0.80;100.00;99882.22;5078127;28;20215;-54
2022/01/17 07:30:40;;;;;;;41.53;22.30;;;;;;;0.83;100.00;99884.84;5084837;28;20740;-55
2022/01/17 07:33:07;;;;;;;37.73;21.77;;;;;;;1.02;100.00;99876.63;5088153;28;20606;-54
2022/01/17 07:35:35;;;;;;;36.57;21.53;;;;;;;0.92;100.00;99873.91;5088005;28;20626;-55
2022/01/17 07:38:04;;;;;;;48.93;22.60;;;;;;;1.09;100.00;99863.09;5087926;28;20302;-59
2022/01/17 07:40:31;;;;;;;40.83;23.00;;;;;;;1.14;100.00;99850.38;5087591;28;20770;-59
2022/01/17 07:42:58;;;;;;;39.60;21.90;;;;;;;1.39;100.00;99862.66;5088812;28;20254;-58
2022/01/17 07:45:27;;;;;;;39.80;20.90;;;;;;;1.51;99.69;99851.75;5089184;28;20229;-57
2022/01/17 07:50:39;;;;;;;34.83;20.70;;;;;;;1.64;98.03;99843.38;5092501;28;20215;-58
2022/01/17 07:53:07;;;;;;;37.33;20.93;;;;;;;1.63;97.57;99857.00;5092959;28;20199;-58
2022/01/17 07:55:34;;;;;;;39.60;21.43;;;;;;;1.70;97.46;99858.78;5092186;28;20206;-58
2022/01/17 07:58:01;;;;;;;40.23;22.40;;;;;;;1.79;98.03;99868.31;5092350;28;20663;-58
2022/01/17 08:00:28;;;;;;;47.80;23.20;;;;;;;1.98;97.67;99890.72;5092442;28;20211;-55
2022/01/17 08:02:58;;;;;;;43.40;23.37;;;;;;;2.13;96.90;99901.13;5093513;28;20198;-55
2022/01/17 08:05:26;;;;;;;44.80;24.60;;;;;;;2.22;96.47;99894.38;5093513;28;20198;-55
2022/01/17 08:07:53;;;;;;;45.40;23.63;;;;;;;2.30;97.50;99901.31;5093321;28;20199;-55
2022/01/17 08:10:21;;;;;;;49.43;24.73;;;;;;;2.55;96.40;99908.41;5093539;28;20192;-55
2022/01/17 08:12:48;;;;;;;41.90;23.53;;;;;;;2.62;96.45;99905.88;5090366;28;20232;-56
2022/01/17 08:15:17;;;;;;;45.20;23.90;;;;;;;2.64;96.00;99888.81;5084026;28;20314;-56
2022/01/17 08:17:45;;;;;;;40.70;21.37;;;;;;;2.74;94.66;99900.88;5092091;28;20560;-59
2022/01/17 08:20:14;;;;;;;40.97;21.23;;;;;;;2.99;94.11;99918.19;5091640;28;20220;-59
2022/01/17 08:22:43;;;;;;;44.57;21.53;;;;;;;3.08;94.01;99968.66;5093429;28;20556;-59
2022/01/17 08:25:11;;;;;;;36.17;21.20;;;;;;;3.27;93.13;99991.09;5093044;28;20197;-59
2022/01/17 08:27:39;;;;;;;35.60;22.43;;;;;;;3.26;92.94;99958.59;5091944;28;20509;-59
2022/01/17 08:30:08;;;;;;;45.10;24.27;;;;;;;3.67;91.61;99991.38;5091830;28;20202;-58
2022/01/17 08:32:35;;;;;;;38.07;22.30;;;;;;;3.88;91.29;99988.91;5092808;28;20187;-59
2022/01/17 08:35:02;;;;;;;40.83;23.33;;;;;;;3.99;91.33;99939.34;5092995;28;20191;-60
2022/01/17 08:37:30;;;;;;;44.97;23.27;;;;;;;4.17;91.23;99936.00;5092550;28;20240;-59
2022/01/17 08:39:59;;;;;;;48.27;26.03;;;;;;;4.38;90.33;99928.34;5093307;28;20210;-58
2022/01/17 08:42:26;;;;;;;43.53;23.53;;;;;;;4.54;89.87;99913.81;5092842;28;20199;-60
2022/01/17 08:44:56;;;;;;;34.03;16.30;;;;;;;4.79;88.39;99917.28;5092710;28;20236;-61
2022/01/17 08:47:23;;;;;;;26.83;10.97;;;;;;;5.13;85.07;99883.84;5092630;28;20300;-59
2022/01/17 08:49:51;;;;;;;15.63;9.93;;;;;;;5.45;83.00;99852.03;5092775;28;20195;-59
2022/01/17 08:52:20;;;;;;;18.83;8.73;;;;;;;5.72;80.15;99861.38;5092770;28;20195;-59
2022/01/17 08:54:47;;;;;;;15.10;7.83;;;;;;;5.93;78.65;99859.63;5092773;28;20286;-60
2022/01/17 08:57:17;;;;;;;14.30;6.80;;;;;;;6.12;78.45;99851.78;5092497;28;20203;-59
2022/01/17 08:59:45;;;;;;;16.83;7.53;;;;;;;6.31;76.34;99816.47;5092535;28;20199;-59
2022/01/17 09:02:13;;;;;;;15.17;7.13;;;;;;;6.53;75.45;99838.66;5092111;28;20227;-57
2022/01/17 09:04:41;;;;;;;12.93;7.37;;;;;;;6.70;74.74;99817.84;5092482;28;20191;-59
2022/01/17 09:07:10;;;;;;;24.47;7.00;;;;;;;6.80;73.45;99831.53;5092156;28;20191;-59
2022/01/17 09:09:38;;;;;;;11.20;5.80;;;;;;;6.95;73.16;99836.56;5092398;28;20535;-59
2022/01/17 09:12:06;;;;;;;15.00;7.87;;;;;;;7.12;72.55;99813.16;5092045;28;20729;-59
2022/01/17 09:14:34;;;;;;;11.70;6.33;;;;;;;7.21;71.69;99795.88;5074816;28;20226;-66
2022/01/17 09:17:01;;;;;;;19.83;7.70;;;;;;;7.27;71.04;99797.53;5092121;28;20231;-55
2022/01/17 09:19:29;;;;;;;11.27;6.27;;;;;;;7.36;69.21;99800.00;5091610;28;20226;-55
2022/01/17 09:21:57;;;;;;;13.87;6.87;;;;;;;7.36;69.48;99786.22;5089032;28;20223;-60
2022/01/17 09:24:25;;;;;;;15.27;6.27;;;;;;;7.46;68.88;99816.25;5091247;28;20199;-59
2022/01/17 09:26:52;;;;;;;14.93;6.47;;;;;;;7.57;68.26;99827.31;5089971;28;20201;-60
2022/01/17 09:29:19;;;;;;;17.20;7.03;;;;;;;7.66;67.91;99829.81;5091446;28;20198;-59
2022/01/17 09:31:46;;;;;;;18.93;9.53;;;;;;;7.74;68.25;99821.94;5091733;28;20199;-59
2022/01/17 09:34:13;;;;;;;11.47;7.20;;;;;;;7.63;68.89;99788.50;5090531;28;20206;-60
2022/01/17 09:36:42;;;;;;;18.17;8.30;;;;;;;7.72;69.00;99816.78;5091148;28;20286;-59
2022/01/17 09:39:10;;;;;;;13.80;7.63;;;;;;;7.64;69.00;99813.47;5091362;28;20206;-59
2022/01/17 09:41:37;;;;;;;18.03;9.00;;;;;;;7.74;68.99;99807.31;5091588;28;20635;-59
2022/01/17 09:44:05;;;;;;;14.10;6.53;;;;;;;7.86;68.00;99785.63;5091719;28;20195;-59
2022/01/17 09:46:34;;;;;;;11.10;6.73;;;;;;;7.93;68.52;99794.97;5090858;28;20195;-60
2022/01/17 09:49:12;;;;;;;12.57;6.10;;;;;;;7.89;67.49;99768.34;5090997;28;20191;-55
2022/01/17 09:52:04;;;;;;;14.67;6.70;;;;;;;8.09;68.03;99786.16;5091473;28;20187;-55
2022/01/17 09:54:35;;;;;;;17.47;6.97;;;;;;;8.35;67.48;99770.28;5091704;28;20642;-55
2022/01/17 09:57:06;;;;;;;12.87;7.10;;;;;;;8.20;67.83;99760.13;5091689;28;20630;-56
2022/01/17 09:59:34;;;;;;;10.37;5.90;;;;;;;8.11;67.71;99762.88;5082554;28;20207;-55
2022/01/17 10:02:01;;;;;;;14.97;6.20;;;;;;;8.28;68.20;99768.63;5091041;28;20219;-55
2022/01/17 10:04:28;;;;;;;12.07;6.20;;;;;;;8.41;68.00;99752.06;5089861;28;20203;-59
2022/01/17 10:06:59;;;;;;;7.47;5.73;;;;;;;8.61;66.88;99743.97;5091400;28;20576;-59
2022/01/17 10:09:27;;;;;;;12.73;5.67;;;;;;;8.70;65.90;99754.16;5091093;28;20498;-59
2022/01/17 10:12:04;;;;;;;8.23;5.20;;;;;;;8.82;65.27;99743.59;5090730;28;20247;-59
2022/01/17 10:14:36;;;;;;;9.67;5.37;;;;;;;8.91;64.90;99732.25;5070302;28;20199;-55
2022/01/17 10:17:04;;;;;;;22.33;5.43;;;;;;;8.80;65.66;99721.22;5084400;28;20278;-54
2022/01/17 10:19:31;;;;;;;8.93;5.00;;;;;;;8.89;65.04;99719.31;5090863;28;20589;-54
2022/01/17 10:22:02;;;;;;;10.50;5.00;;;;;;;8.92;65.35;99708.88;5090787;28;20314;-55
2022/01/17 10:24:37;;;;;;;11.23;5.30;;;;;;;8.94;64.18;99685.56;5091340;28;20678;-55
2022/01/17 10:30:21;;;;;;;12.23;5.60;;;;;;;9.04;63.91;99679.31;5089025;28;20235;-54
2022/01/17 10:35:41;;;;;;;8.07;5.30;;;;;;;8.89;64.49;99682.22;5036953;28;20655;-54
2022/01/17 10:38:11;;;;;;;12.27;5.93;;;;;;;8.86;64.51;99682.28;5070253;28;20204;-55
2022/01/17 10:40:40;;;;;;;9.70;5.33;;;;;;;8.91;64.29;99685.66;5070014;28;20202;-55
2022/01/17 10:43:18;;;;;;;13.43;6.00;;;;;;;9.00;64.48;99685.47;5070314;28;20204;-54
2022/01/17 10:45:46;;;;;;;9.70;4.70;;;;;;;9.04;63.16;99685.34;5070432;28;20221;-55
2022/01/17 10:48:13;;;;;;;6.43;5.43;;;;;;;9.08;63.40;99681.81;5069919;28;20203;-54
2022/01/17 10:50:43;;;;;;;11.23;5.30;;;;;;;9.15;62.41;99677.38;5075210;28;20229;-54
2022/01/17 10:53:13;;;;;;;11.23;5.10;;;;;;;9.13;63.28;99686.94;5073736;28;20203;-55
2022/01/17 10:55:42;;;;;;;6.80;4.43;;;;;;;9.21;62.82;99686.75;5072662;28;20191;-55
2022/01/17 10:58:13;;;;;;;4.40;3.97;;;;;;;9.31;61.21;99691.72;5087501;28;20203;-55
2022/01/17 11:00:42;;;;;;;9.37;4.57;;;;;;;9.28;61.17;99702.13;5069916;28;20606;-55
2022/01/17 11:03:11;;;;;;;6.87;4.33;;;;;;;9.29;62.11;99697.81;5069068;28;20390;-54
2022/01/17 11:05:39;;;;;;;8.40;5.03;;;;;;;9.36;64.10;99723.56;5074367;28;20770;-55
2022/01/17 11:08:08;;;;;;;10.53;5.63;;;;;;;9.44;65.50;99718.22;5086902;28;20290;-55
2022/01/17 11:10:39;;;;;;;7.83;5.83;;;;;;;9.37;65.59;99720.06;5086346;28;20199;-54
2022/01/17 11:13:09;;;;;;;7.07;5.43;;;;;;;9.28;67.47;99703.88;5074032;28;20227;-55
2022/01/17 11:15:37;;;;;;;6.80;4.90;;;;;;;9.31;67.15;99702.06;5080861;28;20204;-55
2022/01/17 11:18:10;;;;;;;6.50;5.10;;;;;;;9.35;66.77;99701.13;5069426;28;20199;-56
2022/01/17 11:20:37;;;;;;;8.50;4.70;;;;;;;9.35;65.68;99698.56;5070444;28;20709;-57
2022/01/17 11:23:05;;;;;;;11.40;4.60;;;;;;;9.38;64.55;99695.88;5072588;28;20199;-54
2022/01/17 11:25:33;;;;;;;4.83;4.27;;;;;;;9.48;65.55;99677.56;5080926;28;20293;-61
2022/01/17 11:28:04;;;;;;;8.63;5.10;;;;;;;9.48;65.79;99697.38;5081195;28;20201;-61
2022/01/17 11:30:33;;;;;;;6.77;4.63;;;;;;;9.43;66.20;99688.88;5089887;28;20199;-61
2022/01/17 11:33:03;;;;;;;4.53;4.07;;;;;;;9.52;61.61;99685.22;5071021;28;20204;-55
2022/01/17 11:35:31;;;;;;;9.53;4.10;;;;;;;9.62;59.88;99691.91;5081775;28;20200;-55
2022/01/17 11:38:01;;;;;;;17.47;4.60;;;;;;;9.69;59.50;99687.44;5083837;28;20206;-59
2022/01/17 11:40:31;;;;;;;5.90;4.00;;;;;;;9.65;59.07;99691.00;5084278;28;20667;-61
2022/01/17 11:42:59;;;;;;;4.10;3.53;;;;;;;9.55;60.16;99699.84;5085614;28;20227;-59